.
WxDataArchive / Data Records for 2014-04-29
2014-04-28 April 2014 2014-04-30

Data Records for Tuesday, 29 April 2014

Time	Temp	Chill	HIndex	Humid	Dewpt	 Wind 	HiWind	WindDir	Rain 	Barom
-----	----	-----	------	-----	-----	------	------	-------	-----	-----
00:00	48.0	45.9	48.0	94	46.4	5	9	90	0.00	29.673 
00:05	48.0	45.9	48.0	94	46.4	5	12	90	0.00	29.673 
00:10	48.0	45.9	48.0	94	46.4	5	10	90	0.00	29.673 
00:15	48.2	46.1	48.2	94	46.6	5	12	112	0.00	29.661 
00:20	48.2	46.1	48.2	95	46.8	5	10	90	0.00	29.661 
00:25	48.2	46.1	48.2	95	46.8	5	11	90	0.00	29.661 
00:30	48.2	48.2	48.2	95	46.8	3	11	90	0.00	29.649 
00:35	48.3	46.9	48.3	95	46.9	4	10	90	0.00	29.649 
00:40	48.3	46.9	48.3	95	46.9	4	7	90	0.00	29.649 
00:45	48.5	47.1	48.5	95	47.1	4	7	90	0.00	29.638 
00:50	48.5	48.5	48.5	95	47.1	3	7	90	0.01	29.638 
00:55	48.8	48.8	48.8	95	47.4	3	10	90	0.00	29.638 
01:00	48.9	46.4	48.9	95	47.5	6	11	90	0.01	29.632 
01:05	48.9	48.9	48.9	95	47.5	3	7	90	0.00	29.632 
01:10	48.9	47.6	48.9	96	47.8	4	12	90	0.00	29.632 
01:15	48.9	48.9	48.9	96	47.8	3	10	90	0.01	29.624 
01:20	49.1	49.1	49.1	96	48.0	2	5	90	0.00	29.624 
01:25	49.2	47.9	49.2	96	48.1	4	9	90	0.00	29.624 
01:30	49.4	48.2	49.4	96	48.3	4	9	90	0.01	29.616 
01:35	49.4	48.2	49.4	96	48.3	4	9	90	0.00	29.616 
01:40	49.5	47.1	49.5	96	48.4	6	12	90	0.01	29.616 
01:45	49.6	48.4	49.6	96	48.5	4	9	90	0.01	29.600 
01:50	49.6	47.7	49.6	96	48.5	5	11	112	0.01	29.600 
01:55	49.6	47.2	49.6	96	48.5	6	10	90	0.00	29.600 
02:00	49.6	47.2	49.6	96	48.5	6	13	90	0.01	29.581 
02:05	49.6	46.7	49.6	96	48.5	7	15	90	0.00	29.581 
02:10	49.6	47.2	49.6	96	48.5	6	13	90	0.00	29.581 
02:15	49.8	47.4	49.8	96	48.7	6	14	90	0.00	29.572 
02:20	49.8	48.0	49.8	96	48.7	5	11	90	0.00	29.572 
02:25	49.8	48.0	49.8	96	48.7	5	12	90	0.00	29.572 
02:30	49.9	49.9	49.9	96	48.8	3	6	90	0.00	29.569 
02:35	49.9	49.9	49.9	96	48.8	2	6	90	0.00	29.569 
02:40	50.1	50.1	50.1	96	49.0	3	7	90	0.00	29.569 
02:45	50.1	50.1	50.1	96	49.0	2	5	112	0.02	29.575 
02:50	50.2	50.2	50.2	96	49.1	2	4	90	0.02	29.575 
02:55	50.2	50.2	50.2	96	49.1	2	7	112	0.01	29.575 
03:00	50.2	50.2	50.2	96	49.1	1	5	90	0.00	29.555 
03:05	50.4	50.4	50.4	96	49.3	1	3	90	0.00	29.555 
03:10	50.4	50.4	50.4	96	49.3	2	6	90	0.00	29.555 
03:15	50.5	50.5	50.5	96	49.4	3	8	90	0.00	29.548 
03:20	50.7	50.7	50.7	96	49.6	1	5	90	0.00	29.548 
03:25	50.8	50.8	50.8	96	49.7	3	7	90	0.00	29.548 
03:30	51.0	51.0	51.0	96	49.9	4	9	90	0.00	29.536 
03:35	51.0	51.0	51.0	96	49.9	3	6	90	0.00	29.536 
03:40	51.1	51.1	51.1	96	50.0	4	6	90	0.00	29.536 
03:45	51.3	51.3	51.3	96	50.2	2	7	90	0.00	29.532 
03:50	51.3	51.3	51.3	96	50.2	1	4	90	0.00	29.532 
03:55	51.6	51.6	51.6	97	50.8	3	9	90	0.00	29.532 
04:00	51.7	51.7	51.7	97	50.9	2	5	112	0.00	29.527 
04:05	51.9	51.9	51.9	96	50.8	2	6	112	0.00	29.527 
04:10	52.0	52.0	52.0	97	51.2	2	6	90	0.00	29.527 
04:15	52.0	52.0	52.0	97	51.2	1	4	90	0.00	29.529 
04:20	51.9	51.9	51.9	96	50.8	0	0	---	0.00	29.529 
04:25	52.0	52.0	52.0	97	51.2	1	3	90	0.00	29.529 
04:30	52.2	52.2	52.2	97	51.4	1	4	90	0.00	29.518 
04:35	52.3	52.3	52.3	97	51.5	0	3	90	0.00	29.518 
04:40	52.5	52.5	52.5	97	51.7	1	2	90	0.00	29.518 
04:45	52.6	52.6	52.6	97	51.8	0	1	90	0.00	29.515 
04:50	52.8	52.8	52.8	97	52.0	2	5	90	0.00	29.515 
04:55	52.9	52.9	52.9	97	52.1	1	4	90	0.00	29.515 
05:00	53.1	53.1	53.1	97	52.3	1	3	90	0.00	29.507 
05:05	53.2	53.2	53.2	97	52.4	1	3	90	0.00	29.507 
05:10	53.2	53.2	53.2	97	52.4	0	3	90	0.00	29.507 
05:15	53.3	53.3	53.3	97	52.5	0	2	90	0.00	29.509 
05:20	53.5	53.5	53.5	97	52.7	1	3	90	0.00	29.509 
05:25	53.6	53.6	53.6	97	52.8	1	3	90	0.00	29.509 
05:30	53.6	53.6	53.6	97	52.8	1	3	90	0.00	29.498 
05:35	53.6	53.6	53.6	97	52.8	1	4	90	0.00	29.498 
05:40	53.5	53.5	53.5	97	52.7	0	2	90	0.00	29.498 
05:45	53.5	53.5	53.5	97	52.7	0	2	90	0.00	29.494 
05:50	53.5	53.5	53.5	97	52.7	0	3	90	0.00	29.494 
05:55	53.5	53.5	53.5	97	52.7	0	1	90	0.00	29.494 
06:00	53.6	53.6	53.6	97	52.8	0	2	90	0.00	29.498 
06:05	53.6	53.6	53.6	97	52.8	0	0	---	0.00	29.498 
06:10	53.5	53.5	53.5	97	52.7	0	0	---	0.00	29.498 
06:15	53.5	53.5	53.5	97	52.7	0	0	---	0.00	29.495 
06:20	53.3	53.3	53.3	97	52.5	0	0	---	0.00	29.495 
06:25	53.2	53.2	53.2	97	52.4	0	0	---	0.00	29.495 
06:30	52.8	52.8	52.8	97	52.0	0	1	90	0.00	29.500 
06:35	52.6	52.6	52.6	97	51.8	0	1	90	0.00	29.500 
06:40	52.6	52.6	52.6	97	51.8	0	0	---	0.00	29.500 
06:45	52.6	52.6	52.6	97	51.8	0	0	---	0.00	29.502 
06:50	52.9	52.9	52.9	97	52.1	0	1	90	0.00	29.502 
06:55	53.1	53.1	53.1	97	52.3	0	0	---	0.00	29.502 
07:00	53.2	53.2	53.2	97	52.4	0	0	---	0.00	29.507 
07:05	53.2	53.2	53.2	97	52.4	0	0	---	0.00	29.507 
07:10	53.3	53.3	53.3	97	52.5	0	0	---	0.00	29.507 
07:15	53.2	53.2	53.2	97	52.4	0	0	---	0.00	29.500 
07:20	53.2	53.2	53.2	97	52.4	0	0	---	0.00	29.500 
07:25	53.1	53.1	53.1	97	52.3	0	0	---	0.00	29.500 
07:30	53.1	53.1	53.1	97	52.3	0	0	---	0.00	29.496 
07:35	53.1	53.1	53.1	97	52.3	0	0	---	0.00	29.496 
07:40	53.2	53.2	53.2	97	52.4	0	0	---	0.00	29.496 
07:45	53.3	53.3	53.3	97	52.5	0	0	---	0.00	29.504 
07:50	53.3	53.3	53.3	97	52.5	0	0	---	0.00	29.504 
07:55	53.5	53.5	53.5	97	52.7	0	0	---	0.00	29.504 
08:00	53.6	53.6	53.6	97	52.8	0	1	90	0.00	29.500 
08:05	53.9	53.9	53.9	97	53.1	0	1	90	0.00	29.500 
08:10	54.2	54.2	54.2	97	53.4	0	3	90	0.00	29.500 
08:15	54.4	54.4	54.4	97	53.6	1	3	90	0.00	29.501 
08:20	54.5	54.5	54.5	97	53.7	0	2	90	0.00	29.501 
08:25	54.7	54.7	54.7	97	53.9	0	1	90	0.00	29.501 
08:30	55.0	55.0	55.0	98	54.4	0	1	90	0.00	29.510 
08:35	55.0	55.0	55.0	98	54.4	0	1	90	0.00	29.510 
08:40	55.1	55.1	55.1	98	54.5	0	2	90	0.00	29.510 
08:45	55.3	55.3	55.3	98	54.7	0	2	90	0.00	29.514 
08:50	55.6	55.6	55.6	98	55.0	0	0	---	0.00	29.514 
08:55	55.9	55.9	55.9	98	55.3	0	1	90	0.00	29.514 
09:00	56.2	56.2	56.2	98	55.6	0	3	90	0.00	29.519 
09:05	56.3	56.3	56.3	98	55.7	0	2	90	0.00	29.519 
09:10	56.5	56.5	56.5	98	55.9	0	2	112	0.00	29.519 
09:15	57.0	57.0	57.0	98	56.4	0	1	112	0.00	29.524 
09:20	57.3	57.3	57.3	98	56.7	0	1	112	0.00	29.524 
09:25	57.8	57.8	57.8	98	57.2	0	2	112	0.00	29.524 
09:30	58.1	58.1	58.1	98	57.5	0	2	112	0.00	29.527 
09:35	58.7	58.7	58.7	98	58.1	0	2	112	0.00	29.527 
09:40	59.2	59.2	59.2	98	58.6	0	1	112	0.01	29.527 
09:45	59.5	59.5	59.5	98	58.9	0	4	112	0.00	29.530 
09:50	59.8	59.8	59.8	98	59.2	0	2	112	0.00	29.530 
09:55	60.5	60.5	60.5	98	59.9	0	1	112	0.00	29.530 
10:00	60.7	60.7	60.7	98	60.1	0	2	112	0.00	29.533 
10:05	60.7	60.7	60.7	98	60.1	0	2	90	0.00	29.533 
10:10	61.2	61.2	61.2	97	60.3	0	4	90	0.00	29.533 
10:15	61.5	61.5	61.5	97	60.6	0	4	90	0.00	29.532 
10:20	61.5	61.5	61.5	96	60.3	1	5	90	0.00	29.532 
10:25	62.0	62.0	62.0	92	59.6	1	4	112	0.00	29.532 
10:30	62.7	62.7	62.7	88	59.1	1	3	225	0.00	29.538 
10:35	63.4	63.4	63.4	78	56.4	2	4	112	0.00	29.538 
10:40	64.3	64.3	64.3	71	54.7	1	3	112	0.00	29.538 
10:45	65.0	65.0	65.0	67	53.8	1	4	248	0.00	29.546 
10:50	65.5	65.5	65.5	67	54.2	0	2	248	0.00	29.546 
10:55	66.1	66.1	66.1	63	53.1	1	6	90	0.00	29.546 
11:00	66.9	66.9	66.9	65	54.7	0	3	90	0.00	29.550 
11:05	67.3	67.3	67.3	60	52.9	1	4	90	0.00	29.550 
11:10	67.4	67.4	67.4	58	52.1	1	5	248	0.00	29.550 
11:15	68.1	68.1	68.1	58	52.8	1	3	248	0.00	29.549 
11:20	68.8	68.8	68.8	59	53.9	1	4	135	0.00	29.549 
11:25	69.3	69.3	69.3	55	52.4	1	4	248	0.00	29.549 
11:30	69.4	69.4	69.4	54	52.0	1	4	248	0.00	29.550 
11:35	69.9	69.9	69.9	50	50.4	1	5	248	0.00	29.550 
11:40	69.6	69.6	69.6	53	51.7	1	4	248	0.00	29.550 
11:45	69.8	69.8	69.8	54	52.4	1	3	248	0.00	29.552 
11:50	70.4	70.4	70.4	53	52.4	1	4	112	0.00	29.552 
11:55	70.9	70.9	70.9	50	51.3	1	3	270	0.00	29.552 
12:00	71.6	71.6	71.6	51	52.5	0	3	90	0.00	29.551 
12:05	72.0	72.0	72.0	46	50.1	1	4	90	0.00	29.551 
12:10	71.8	71.8	71.8	44	48.7	2	6	90	0.00	29.551 
12:15	71.8	71.8	71.8	46	49.9	1	4	90	0.00	29.550 
12:20	71.5	71.5	71.5	41	46.5	1	4	248	0.00	29.550 
12:25	71.5	71.5	71.5	44	48.4	1	4	248	0.00	29.550 
12:30	71.8	71.8	71.8	37	44.1	2	5	248	0.00	29.559 
12:35	71.8	71.8	71.8	36	43.4	1	4	248	0.00	29.559 
12:40	71.8	71.8	71.8	37	44.1	2	5	248	0.00	29.559 
12:45	72.0	72.0	72.0	42	47.6	1	4	248	0.00	29.562 
12:50	72.1	72.1	72.1	38	45.1	1	7	270	0.00	29.562 
12:55	72.7	72.7	72.7	42	48.3	1	6	270	0.00	29.562 
13:00	72.8	72.8	72.8	40	47.1	1	3	135	0.00	29.561 
13:05	72.7	72.7	72.7	42	48.3	0	2	225	0.00	29.561 
13:10	72.7	72.7	72.7	39	46.3	2	6	292	0.00	29.561 
13:15	72.8	72.8	72.8	41	47.7	1	4	248	0.00	29.562 
13:20	73.2	73.2	73.2	37	45.4	2	7	248	0.00	29.562 
13:25	72.7	72.7	72.7	35	43.5	2	5	248	0.00	29.562 
13:30	72.3	72.3	72.3	39	45.9	2	5	270	0.00	29.565 
13:35	72.3	72.3	72.3	37	44.6	2	9	270	0.00	29.565 
13:40	72.7	72.7	72.7	38	45.6	3	9	68	0.00	29.565 
13:45	72.8	72.8	72.8	35	43.5	3	9	248	0.00	29.571 
13:50	72.8	72.8	72.8	35	43.5	2	6	248	0.00	29.571 
13:55	73.0	73.0	73.0	33	42.2	4	13	90	0.00	29.571 
14:00	73.0	73.0	73.0	37	45.2	2	7	68	0.00	29.571 
14:05	73.0	73.0	73.0	34	43.0	3	9	248	0.00	29.571 
14:10	73.2	73.2	73.2	34	43.1	2	9	90	0.00	29.571 
14:15	72.8	72.8	72.8	35	43.5	2	11	248	0.00	29.574 
14:20	72.7	72.7	72.7	37	44.9	3	18	112	0.00	29.574 
14:25	72.8	72.8	72.8	34	42.8	2	18	112	0.00	29.574 
14:30	72.5	72.5	72.5	33	41.7	1	5	45	0.00	29.575 
14:35	72.3	72.3	72.3	37	44.6	2	5	45	0.00	29.575 
14:40	72.3	72.3	72.3	35	43.1	1	5	248	0.00	29.575 
14:45	72.8	72.8	72.8	34	42.8	1	4	68	0.00	29.570 
14:50	73.3	73.3	73.3	34	43.2	1	6	270	0.00	29.570 
14:55	73.5	73.5	73.5	37	45.6	2	6	45	0.00	29.570 
15:00	73.9	73.9	73.9	40	48.0	1	4	270	0.00	29.571 
15:05	74.4	74.4	74.4	37	46.4	2	12	90	0.00	29.571 
15:10	74.4	74.4	74.4	32	42.6	4	10	292	0.00	29.571 
15:15	74.4	74.4	74.4	33	43.4	2	7	0	0.00	29.572 
15:20	74.4	74.4	74.4	33	43.4	3	8	270	0.00	29.572 
15:25	74.7	74.7	74.7	37	46.7	2	6	248	0.00	29.572 
15:30	74.6	74.6	74.6	33	43.6	4	10	90	0.00	29.574 
15:35	74.6	74.6	74.6	34	44.4	3	9	90	0.00	29.574 
15:40	74.7	74.7	74.7	32	42.9	3	11	68	0.00	29.574 
15:45	74.7	74.7	74.7	37	46.7	3	10	68	0.00	29.576 
15:50	75.1	75.1	77.2	34	44.8	3	12	248	0.00	29.576 
15:55	74.9	74.9	74.9	34	44.6	3	12	248	0.00	29.576 
16:00	74.4	74.4	74.4	32	42.6	3	10	248	0.00	29.578 
16:05	73.9	73.9	73.9	34	43.7	4	11	68	0.00	29.578 
16:10	73.9	73.9	73.9	35	44.5	2	9	68	0.00	29.578 
16:15	73.5	73.5	73.5	36	44.9	2	7	248	0.00	29.580 
16:20	73.3	73.3	73.3	36	44.7	2	6	270	0.00	29.580 
16:25	74.2	74.2	74.2	33	43.2	2	7	248	0.00	29.580 
16:30	74.7	74.7	74.7	31	42.0	2	4	270	0.00	29.585 
16:35	74.4	74.4	74.4	36	45.7	2	7	248	0.00	29.585 
16:40	74.2	74.2	74.2	35	44.8	2	7	270	0.00	29.585 
16:45	73.9	73.9	73.9	36	45.2	2	6	45	0.00	29.584 
16:50	73.5	73.5	73.5	34	43.4	2	7	68	0.00	29.584 
16:55	73.9	73.9	73.9	32	42.2	2	6	68	0.00	29.584 
17:00	74.2	74.2	74.2	29	39.9	3	11	248	0.00	29.584 
17:05	74.0	74.0	74.0	29	39.7	3	9	248	0.00	29.584 
17:10	73.9	73.9	73.9	28	38.7	3	7	90	0.00	29.584 
17:15	73.5	73.5	73.5	30	40.2	2	13	90	0.00	29.589 
17:20	74.2	74.2	74.2	29	39.9	1	5	248	0.00	29.589 
17:25	74.4	74.4	74.4	28	39.2	2	9	0	0.00	29.589 
17:30	74.0	74.0	74.0	27	37.9	1	7	0	0.00	29.589 
17:35	73.7	73.7	73.7	27	37.6	1	7	248	0.00	29.589 
17:40	73.3	73.3	73.3	28	38.2	2	7	248	0.00	29.589 
17:45	73.2	73.2	73.2	28	38.1	2	5	248	0.00	29.594 
17:50	73.2	73.2	73.2	29	39.0	3	13	248	0.00	29.594 
17:55	73.2	73.2	73.2	27	37.2	1	5	248	0.00	29.594 
18:00	73.2	73.2	73.2	25	35.3	3	9	248	0.00	29.598 
18:05	73.2	73.2	73.2	25	35.3	2	8	248	0.00	29.598 
18:10	73.0	73.0	73.0	26	36.1	1	7	248	0.00	29.598 
18:15	72.8	72.8	72.8	26	35.9	2	7	248	0.00	29.606 
18:20	72.7	72.7	72.7	26	35.8	1	5	270	0.00	29.606 
18:25	72.5	72.5	72.5	27	36.6	2	7	248	0.00	29.606 
18:30	72.1	72.1	72.1	26	35.3	2	7	248	0.00	29.619 
18:35	70.4	70.4	70.4	38	43.6	4	13	225	0.00	29.619 
18:40	67.9	67.9	67.9	40	42.7	3	9	248	0.00	29.619 
18:45	67.3	67.3	67.3	40	42.1	4	12	248	0.00	29.655 
18:50	67.1	67.1	67.1	41	42.6	4	11	248	0.00	29.655 
18:55	66.6	66.6	66.6	43	43.4	2	13	225	0.00	29.655 
19:00	66.3	66.3	66.3	43	43.1	2	6	248	0.00	29.678 
19:05	65.8	65.8	65.8	43	42.7	3	9	248	0.00	29.678 
19:10	65.3	65.3	65.3	45	43.4	3	9	248	0.00	29.678 
19:15	64.7	64.7	64.7	46	43.4	4	12	248	0.00	29.687 
19:20	64.2	64.2	64.2	49	44.6	3	9	248	0.00	29.687 
19:25	63.7	63.7	63.7	50	44.7	3	9	248	0.00	29.687 
19:30	63.4	63.4	63.4	51	45.0	4	11	248	0.00	29.705 
19:35	63.1	63.1	63.1	53	45.7	2	10	248	0.00	29.705 
19:40	62.7	62.7	62.7	54	45.8	1	4	248	0.00	29.705 
19:45	62.6	62.6	62.6	53	45.2	1	5	248	0.00	29.710 
19:50	62.7	62.7	62.7	53	45.3	2	9	248	0.00	29.710 
19:55	62.7	62.7	62.7	55	46.3	2	6	248	0.00	29.710 
20:00	62.4	62.4	62.4	56	46.5	2	5	248	0.00	29.728 
20:05	62.1	62.1	62.1	58	47.1	1	5	248	0.00	29.728 
20:10	61.8	61.8	61.8	59	47.3	2	6	248	0.00	29.728 
20:15	61.5	61.5	61.5	60	47.5	1	10	270	0.00	29.736 
20:20	61.2	61.2	61.2	61	47.6	1	6	270	0.00	29.736 
20:25	61.0	61.0	61.0	62	47.9	1	4	248	0.00	29.736 
20:30	60.9	60.9	60.9	62	47.8	2	5	248	0.00	29.731 
20:35	60.4	60.4	60.4	62	47.3	2	9	248	0.00	29.731 
20:40	59.8	59.8	59.8	62	46.8	2	9	270	0.00	29.731 
20:45	59.5	59.5	59.5	62	46.5	1	5	248	0.01	29.729 
20:50	59.2	59.2	59.2	62	46.2	1	3	248	0.00	29.729 
20:55	59.0	59.0	59.0	62	46.0	1	5	90	0.00	29.729 
21:00	58.7	58.7	58.7	62	45.7	1	4	90	0.00	29.746 
21:05	58.7	58.7	58.7	62	45.7	1	6	270	0.00	29.746 
21:10	58.6	58.6	58.6	64	46.5	1	4	270	0.00	29.746 
21:15	58.1	58.1	58.1	64	46.0	1	7	248	0.00	29.740 
21:20	57.8	57.8	57.8	64	45.7	2	10	248	0.00	29.740 
21:25	57.5	57.5	57.5	65	45.8	2	9	90	0.00	29.740 
21:30	57.3	57.3	57.3	65	45.6	1	4	90	0.00	29.714 
21:35	57.2	57.2	57.2	65	45.5	1	4	90	0.00	29.714 
21:40	57.0	57.0	57.0	65	45.4	1	4	90	0.00	29.714 
21:45	56.9	56.9	56.9	66	45.7	0	2	90	0.00	29.713 
21:50	56.6	56.6	56.6	66	45.4	0	1	90	0.00	29.713 
21:55	56.5	56.5	56.5	66	45.3	0	4	90	0.00	29.713 
22:00	56.3	56.3	56.3	66	45.1	0	2	90	0.00	29.702 
22:05	56.3	56.3	56.3	66	45.1	0	3	90	0.00	29.702 
22:10	56.2	56.2	56.2	66	45.0	0	3	90	0.00	29.702 
22:15	56.0	56.0	56.0	66	44.8	0	2	90	0.00	29.695 
22:20	55.9	55.9	55.9	67	45.1	0	3	90	0.00	29.695 
22:25	55.9	55.9	55.9	66	44.7	0	3	90	0.00	29.695 
22:30	55.9	55.9	55.9	66	44.7	0	3	90	0.00	29.688 
22:35	55.7	55.7	55.7	67	44.9	0	2	90	0.00	29.688 
22:40	55.6	55.6	55.6	68	45.2	0	3	90	0.00	29.688 
22:45	55.3	55.3	55.3	69	45.3	0	1	90	0.00	29.678 
22:50	55.1	55.1	55.1	70	45.5	0	2	90	0.00	29.678 
22:55	54.8	54.8	54.8	71	45.6	0	3	90	0.00	29.678 
23:00	54.7	54.7	54.7	72	45.9	1	3	90	0.00	29.688 
23:05	54.5	54.5	54.5	73	46.0	0	1	90	0.00	29.688 
23:10	54.2	54.2	54.2	74	46.1	0	2	90	0.00	29.688 
23:15	54.1	54.1	54.1	75	46.4	0	4	90	0.00	29.718 
23:20	54.1	54.1	54.1	76	46.7	1	4	112	0.00	29.718 
23:25	54.1	54.1	54.1	76	46.7	1	4	112	0.00	29.718 
23:30	54.2	54.2	54.2	76	46.8	1	5	112	0.00	29.729 
23:35	54.2	54.2	54.2	77	47.1	1	3	135	0.00	29.729 
23:40	54.2	54.2	54.2	77	47.1	0	2	135	0.00	29.729 
23:45	54.2	54.2	54.2	77	47.1	0	2	135	0.00	29.722 
23:50	54.1	54.1	54.1	77	47.0	1	3	90	0.00	29.722 
23:55	54.1	54.1	54.1	77	47.0	0	2	90	0.00	29.722 

CoCoRaHS
IN-AL-39
A2 Web Hosting
Creative Commons License
GoDaddy
search engine by freefind advanced

loaded 2018-11-17 14:55:08 • last modified 2010-11-18 10:43:29
Privacy PolicyDisclaimer
• wx.awcolley.com is powered by PmWiki v.2002016 •
• all content (unless otherwise noted) © 2018 A W Colley